sensor_id;sensor_type;location;lat;lon;timestamp;pressure;altitude;pressure_sealevel;temperature;humidity
67038;BME280;53940;53.204;6.590;2022-10-31T00:00:40;101901.19;;;22.05;56.48
67038;BME280;53940;53.204;6.590;2022-10-31T00:03:40;101907.53;;;22.04;56.50
67038;BME280;53940;53.204;6.590;2022-10-31T00:06:41;101913.88;;;22.03;56.69
67038;BME280;53940;53.204;6.590;2022-10-31T00:09:41;101918.38;;;22.02;56.51
67038;BME280;53940;53.204;6.590;2022-10-31T00:12:41;101925.72;;;22.00;56.35
67038;BME280;53940;53.204;6.590;2022-10-31T00:15:42;101919.47;;;22.00;56.67
67038;BME280;53940;53.204;6.590;2022-10-31T00:18:42;101932.19;;;21.98;56.69
67038;BME280;53940;53.204;6.590;2022-10-31T00:21:43;101929.50;;;21.98;56.47
67038;BME280;53940;53.204;6.590;2022-10-31T00:24:43;101919.75;;;21.97;56.52
67038;BME280;53940;53.204;6.590;2022-10-31T00:27:44;101927.03;;;21.94;56.57
67038;BME280;53940;53.204;6.590;2022-10-31T00:30:44;101929.72;;;21.94;56.59
67038;BME280;53940;53.204;6.590;2022-10-31T00:33:44;101931.69;;;21.92;56.63
67038;BME280;53940;53.204;6.590;2022-10-31T00:36:45;101936.19;;;21.92;56.47
67038;BME280;53940;53.204;6.590;2022-10-31T00:39:45;101937.16;;;21.91;56.65
67038;BME280;53940;53.204;6.590;2022-10-31T00:42:47;101942.53;;;21.91;56.67
67038;BME280;53940;53.204;6.590;2022-10-31T00:45:48;101937.31;;;21.89;56.73
67038;BME280;53940;53.204;6.590;2022-10-31T00:48:48;101931.19;;;21.87;56.76
67038;BME280;53940;53.204;6.590;2022-10-31T00:51:48;101940.94;;;21.88;56.76
67038;BME280;53940;53.204;6.590;2022-10-31T00:54:49;101935.84;;;21.85;56.78
67038;BME280;53940;53.204;6.590;2022-10-31T00:57:49;101950.94;;;21.86;56.69
67038;BME280;53940;53.204;6.590;2022-10-31T01:00:49;101943.88;;;21.85;56.58
67038;BME280;53940;53.204;6.590;2022-10-31T01:03:56;101945.84;;;21.83;56.77
67038;BME280;53940;53.204;6.590;2022-10-31T01:06:56;101948.53;;;21.83;56.77
67038;BME280;53940;53.204;6.590;2022-10-31T01:09:56;101947.78;;;21.81;56.62
67038;BME280;53940;53.204;6.590;2022-10-31T01:12:57;101958.50;;;21.81;56.58
67038;BME280;53940;53.204;6.590;2022-10-31T01:15:59;101951.44;;;21.80;56.47
67038;BME280;53940;53.204;6.590;2022-10-31T01:18:59;101958.63;;;21.79;56.58
67038;BME280;53940;53.204;6.590;2022-10-31T01:22:00;101963.16;;;21.79;56.67
67038;BME280;53940;53.204;6.590;2022-10-31T01:25:00;101958.75;;;21.78;56.51
67038;BME280;53940;53.204;6.590;2022-10-31T01:28:00;101967.78;;;21.77;56.45
67038;BME280;53940;53.204;6.590;2022-10-31T01:31:06;101963.38;;;21.76;56.50
67038;BME280;53940;53.204;6.590;2022-10-31T01:34:07;101960.69;;;21.76;56.67
67038;BME280;53940;53.204;6.590;2022-10-31T01:37:07;101953.63;;;21.75;56.44
67038;BME280;53940;53.204;6.590;2022-10-31T01:40:08;101958.16;;;21.74;56.80
67038;BME280;53940;53.204;6.590;2022-10-31T01:43:13;101956.41;;;21.73;56.45
67038;BME280;53940;53.204;6.590;2022-10-31T01:46:16;101947.63;;;21.71;56.54
67038;BME280;53940;53.204;6.590;2022-10-31T01:49:23;101948.50;;;21.72;56.56
67038;BME280;53940;53.204;6.590;2022-10-31T01:52:31;101946.81;;;21.71;56.54
67038;BME280;53940;53.204;6.590;2022-10-31T01:55:39;101955.81;;;21.70;56.87
67038;BME280;53940;53.204;6.590;2022-10-31T01:58:40;101953.13;;;21.70;56.67
67038;BME280;53940;53.204;6.590;2022-10-31T02:01:42;101950.44;;;21.70;56.59
67038;BME280;53940;53.204;6.590;2022-10-31T02:04:43;101946.00;;;21.68;56.74
67038;BME280;53940;53.204;6.590;2022-10-31T02:11:11;101952.34;;;21.67;56.77
67038;BME280;53940;53.204;6.590;2022-10-31T02:14:12;101961.38;;;21.66;56.76
67038;BME280;53940;53.204;6.590;2022-10-31T02:17:13;101956.03;;;21.66;56.67
67038;BME280;53940;53.204;6.590;2022-10-31T02:20:22;101948.94;;;21.65;56.77
67038;BME280;53940;53.204;6.590;2022-10-31T02:26:49;101951.75;;;21.64;56.63
67038;BME280;53940;53.204;6.590;2022-10-31T02:30:07;101952.72;;;21.63;56.48
67038;BME280;53940;53.204;6.590;2022-10-31T02:36:31;101961.75;;;21.62;56.46
67038;BME280;53940;53.204;6.590;2022-10-31T02:43:05;101951.13;;;21.60;56.38
67038;BME280;53940;53.204;6.590;2022-10-31T02:46:19;101945.78;;;21.60;56.50
67038;BME280;53940;53.204;6.590;2022-10-31T02:52:39;101941.38;;;21.59;56.40
67038;BME280;53940;53.204;6.590;2022-10-31T02:59:02;101944.19;;;21.58;56.43
67038;BME280;53940;53.204;6.590;2022-10-31T03:02:32;101947.84;;;21.57;56.42
67038;BME280;53940;53.204;6.590;2022-10-31T03:06:07;101931.13;;;21.53;56.50
67038;BME280;53940;53.204;6.590;2022-10-31T03:09:42;101941.84;;;21.53;56.39
67038;BME280;53940;53.204;6.590;2022-10-31T03:15:53;101948.19;;;21.52;56.60
67038;BME280;53940;53.204;6.590;2022-10-31T03:19:08;101947.34;;;21.51;56.55
67038;BME280;53940;53.204;6.590;2022-10-31T03:22:20;101935.72;;;21.51;56.27
67038;BME280;53940;53.204;6.590;2022-10-31T03:25:22;101944.75;;;21.50;56.53
67038;BME280;53940;53.204;6.590;2022-10-31T03:28:28;101942.94;;;21.50;56.32
67038;BME280;53940;53.204;6.590;2022-10-31T03:31:33;101954.66;;;21.49;56.32
67038;BME280;53940;53.204;6.590;2022-10-31T03:34:37;101948.41;;;21.49;56.32
67038;BME280;53940;53.204;6.590;2022-10-31T03:37:40;101953.78;;;21.49;56.32
67038;BME280;53940;53.204;6.590;2022-10-31T03:40:43;101960.13;;;21.48;56.13
67038;BME280;53940;53.204;6.590;2022-10-31T03:44:00;101955.75;;;21.47;56.49
67038;BME280;53940;53.204;6.590;2022-10-31T03:47:04;101960.13;;;21.48;56.54
67038;BME280;53940;53.204;6.590;2022-10-31T03:50:06;101960.25;;;21.46;56.34
67038;BME280;53940;53.204;6.590;2022-10-31T03:53:16;101959.41;;;21.46;56.30
67038;BME280;53940;53.204;6.590;2022-10-31T03:56:41;101949.63;;;21.45;56.55
67038;BME280;53940;53.204;6.590;2022-10-31T03:59:47;101949.63;;;21.45;56.34
67038;BME280;53940;53.204;6.590;2022-10-31T04:03:15;101951.47;;;21.44;56.15
67038;BME280;53940;53.204;6.590;2022-10-31T04:06:18;101955.97;;;21.44;56.06
67038;BME280;53940;53.204;6.590;2022-10-31T04:09:22;101957.81;;;21.43;56.15
67038;BME280;53940;53.204;6.590;2022-10-31T04:12:24;101964.97;;;21.43;56.36
67038;BME280;53940;53.204;6.590;2022-10-31T04:15:26;101964.00;;;21.44;56.21
67038;BME280;53940;53.204;6.590;2022-10-31T04:18:28;101958.75;;;21.42;56.34
67038;BME280;53940;53.204;6.590;2022-10-31T04:21:29;101961.56;;;21.40;56.44
67038;BME280;53940;53.204;6.590;2022-10-31T04:24:30;101962.41;;;21.41;56.07
67038;BME280;53940;53.204;6.590;2022-10-31T04:27:30;101964.25;;;21.40;56.12
67038;BME280;53940;53.204;6.590;2022-10-31T04:30:30;101970.59;;;21.39;56.13
67038;BME280;53940;53.204;6.590;2022-10-31T04:33:31;101970.59;;;21.39;56.35
67038;BME280;53940;53.204;6.590;2022-10-31T04:36:31;101970.59;;;21.39;56.11
67038;BME280;53940;53.204;6.590;2022-10-31T04:39:31;101971.53;;;21.38;56.04
67038;BME280;53940;53.204;6.590;2022-10-31T04:42:32;101972.53;;;21.37;55.97
67038;BME280;53940;53.204;6.590;2022-10-31T04:45:32;101970.69;;;21.38;56.26
67038;BME280;53940;53.204;6.590;2022-10-31T04:48:33;101973.50;;;21.36;55.96
67038;BME280;53940;53.204;6.590;2022-10-31T04:51:33;101964.59;;;21.36;55.97
67038;BME280;53940;53.204;6.590;2022-10-31T04:54:33;101970.81;;;21.36;56.07
67038;BME280;53940;53.204;6.590;2022-10-31T04:57:43;101965.56;;;21.35;56.00
67038;BME280;53940;53.204;6.590;2022-10-31T05:00:43;101969.13;;;21.35;55.93
67038;BME280;53940;53.204;6.590;2022-10-31T05:03:44;101962.03;;;21.34;55.73
67038;BME280;53940;53.204;6.590;2022-10-31T05:06:44;101956.69;;;21.34;56.15
67038;BME280;53940;53.204;6.590;2022-10-31T05:09:44;101954.97;;;21.33;56.02
67038;BME280;53940;53.204;6.590;2022-10-31T05:12:46;101960.34;;;21.33;56.01
67038;BME280;53940;53.204;6.590;2022-10-31T05:15:49;101960.34;;;21.33;55.90
67038;BME280;53940;53.204;6.590;2022-10-31T05:18:49;101955.09;;;21.32;56.01
67038;BME280;53940;53.204;6.590;2022-10-31T05:21:49;101963.97;;;21.32;55.78
67038;BME280;53940;53.204;6.590;2022-10-31T05:24:50;101962.25;;;21.31;55.68
67038;BME280;53940;53.204;6.590;2022-10-31T05:27:51;101961.41;;;21.31;55.58
67038;BME280;53940;53.204;6.590;2022-10-31T05:30:51;101965.91;;;21.30;55.69
67038;BME280;53940;53.204;6.590;2022-10-31T05:33:52;101972.16;;;21.31;55.89
67038;BME280;53940;53.204;6.590;2022-10-31T05:36:52;101957.97;;;21.28;55.66
67038;BME280;53940;53.204;6.590;2022-10-31T05:39:52;101964.22;;;21.29;55.60
67038;BME280;53940;53.204;6.590;2022-10-31T05:42:55;101973.22;;;21.28;55.63
67038;BME280;53940;53.204;6.590;2022-10-31T05:45:56;101968.72;;;21.28;55.50
67038;BME280;53940;53.204;6.590;2022-10-31T05:48:56;101977.72;;;21.27;55.53
67038;BME280;53940;53.204;6.590;2022-10-31T05:51:57;101969.78;;;21.26;55.79
67038;BME280;53940;53.204;6.590;2022-10-31T05:54:58;101967.97;;;21.26;55.69
67038;BME280;53940;53.204;6.590;2022-10-31T05:57:58;101970.66;;;21.26;55.66
67038;BME280;53940;53.204;6.590;2022-10-31T06:00:58;101975.16;;;21.26;55.41
67038;BME280;53940;53.204;6.590;2022-10-31T06:03:59;101967.13;;;21.26;55.67
67038;BME280;53940;53.204;6.590;2022-10-31T06:06:59;101973.44;;;21.25;55.59
67038;BME280;53940;53.204;6.590;2022-10-31T06:10:00;101969.94;;;21.24;55.57
67038;BME280;53940;53.204;6.590;2022-10-31T06:13:00;101970.78;;;21.25;55.28
67038;BME280;53940;53.204;6.590;2022-10-31T06:16:01;101964.56;;;21.24;55.67
67038;BME280;53940;53.204;6.590;2022-10-31T06:19:01;101961.03;;;21.24;55.30
67038;BME280;53940;53.204;6.590;2022-10-31T06:22:01;101964.69;;;21.23;55.38
67038;BME280;53940;53.204;6.590;2022-10-31T06:25:02;101972.72;;;21.23;55.43
67038;BME280;53940;53.204;6.590;2022-10-31T06:28:02;101965.66;;;21.22;55.45
67038;BME280;53940;53.204;6.590;2022-10-31T06:31:03;101965.50;;;21.23;55.52
67038;BME280;53940;53.204;6.590;2022-10-31T06:34:03;101974.44;;;21.24;55.74
67038;BME280;53940;53.204;6.590;2022-10-31T06:37:06;101972.63;;;21.24;55.53
67038;BME280;53940;53.204;6.590;2022-10-31T06:40:07;101969.06;;;21.24;55.78
67038;BME280;53940;53.204;6.590;2022-10-31T06:43:07;101968.97;;;21.25;55.54
67038;BME280;53940;53.204;6.590;2022-10-31T06:46:09;101960.03;;;21.25;55.85
67038;BME280;53940;53.204;6.590;2022-10-31T06:49:09;101963.50;;;21.27;55.50
67038;BME280;53940;53.204;6.590;2022-10-31T06:52:10;101964.31;;;21.27;55.69
67038;BME280;53940;53.204;6.590;2022-10-31T06:55:11;101967.88;;;21.28;55.72
67038;BME280;53940;53.204;6.590;2022-10-31T06:58:11;101958.84;;;21.29;55.63
67038;BME280;53940;53.204;6.590;2022-10-31T07:01:11;101968.59;;;21.30;55.65
67038;BME280;53940;53.204;6.590;2022-10-31T07:04:12;101970.31;;;21.31;55.92
67038;BME280;53940;53.204;6.590;2022-10-31T07:07:12;101964.84;;;21.33;55.55
67038;BME280;53940;53.204;6.590;2022-10-31T07:10:13;101964.84;;;21.33;55.76
67038;BME280;53940;53.204;6.590;2022-10-31T07:13:14;101965.69;;;21.33;55.75
67038;BME280;53940;53.204;6.590;2022-10-31T07:16:14;101967.41;;;21.34;55.66
67038;BME280;53940;53.204;6.590;2022-10-31T07:19:14;101970.91;;;21.35;55.85
67038;BME280;53940;53.204;6.590;2022-10-31T07:22:15;101976.19;;;21.36;55.79
67038;BME280;53940;53.204;6.590;2022-10-31T07:25:15;101970.81;;;21.36;55.62
67038;BME280;53940;53.204;6.590;2022-10-31T07:28:16;101977.88;;;21.37;55.61
67038;BME280;53940;53.204;6.590;2022-10-31T07:31:16;101976.19;;;21.36;55.41
67038;BME280;53940;53.204;6.590;2022-10-31T07:34:16;101976.91;;;21.38;55.62
67038;BME280;53940;53.204;6.590;2022-10-31T07:37:16;101987.63;;;21.38;55.44
67038;BME280;53940;53.204;6.590;2022-10-31T07:40:18;101982.16;;;21.40;55.33
67038;BME280;53940;53.204;6.590;2022-10-31T07:43:19;101973.13;;;21.41;55.37
67038;BME280;53940;53.204;6.590;2022-10-31T07:46:21;101975.72;;;21.43;55.49
67038;BME280;53940;53.204;6.590;2022-10-31T07:49:21;101980.97;;;21.44;55.34
67038;BME280;53940;53.204;6.590;2022-10-31T07:52:21;101991.59;;;21.46;55.41
67038;BME280;53940;53.204;6.590;2022-10-31T07:55:22;101980.84;;;21.46;55.63
67038;BME280;53940;53.204;6.590;2022-10-31T07:58:22;101998.66;;;21.47;55.29
67038;BME280;53940;53.204;6.590;2022-10-31T08:01:22;101987.91;;;21.47;55.67
67038;BME280;53940;53.204;6.590;2022-10-31T08:04:23;101994.00;;;21.49;55.67
67038;BME280;53940;53.204;6.590;2022-10-31T08:07:23;101993.16;;;21.48;55.31
67038;BME280;53940;53.204;6.590;2022-10-31T08:10:24;101993.03;;;21.50;55.29
67038;BME280;53940;53.204;6.590;2022-10-31T08:13:25;101996.59;;;21.50;55.64
67038;BME280;53940;53.204;6.590;2022-10-31T08:16:26;101993.91;;;21.50;55.51
67038;BME280;53940;53.204;6.590;2022-10-31T08:19:27;101994.75;;;21.51;55.45
67038;BME280;53940;53.204;6.590;2022-10-31T08:22:27;101989.38;;;21.51;55.23
67038;BME280;53940;53.204;6.590;2022-10-31T08:25:29;101990.13;;;21.53;55.20
67038;BME280;53940;53.204;6.590;2022-10-31T08:28:30;102006.97;;;21.55;55.39
67038;BME280;53940;53.204;6.590;2022-10-31T08:31:30;102001.59;;;21.55;55.34
67038;BME280;53940;53.204;6.590;2022-10-31T08:34:30;101997.09;;;21.56;55.30
67038;BME280;53940;53.204;6.590;2022-10-31T08:37:31;101987.44;;;21.53;55.27
67038;BME280;53940;53.204;6.590;2022-10-31T08:40:32;102003.28;;;21.56;55.33
67038;BME280;53940;53.204;6.590;2022-10-31T08:43:33;101999.78;;;21.56;55.20
67038;BME280;53940;53.204;6.590;2022-10-31T08:46:33;102001.59;;;21.55;55.17
67038;BME280;53940;53.204;6.590;2022-10-31T08:49:34;101998.19;;;21.53;55.44
67038;BME280;53940;53.204;6.590;2022-10-31T08:52:34;102000.63;;;21.56;55.40
67038;BME280;53940;53.204;6.590;2022-10-31T08:55:36;102006.97;;;21.55;55.24
67038;BME280;53940;53.204;6.590;2022-10-31T08:58:36;102008.91;;;21.53;55.37
67038;BME280;53940;53.204;6.590;2022-10-31T09:01:37;102013.28;;;21.54;55.22
67038;BME280;53940;53.204;6.590;2022-10-31T09:04:37;102006.97;;;21.55;55.10
67038;BME280;53940;53.204;6.590;2022-10-31T09:07:37;102001.59;;;21.55;55.10
67038;BME280;53940;53.204;6.590;2022-10-31T09:10:38;102007.81;;;21.56;55.34
67038;BME280;53940;53.204;6.590;2022-10-31T09:13:39;102003.53;;;21.53;55.28
67038;BME280;53940;53.204;6.590;2022-10-31T09:16:39;102003.53;;;21.53;55.11
67038;BME280;53940;53.204;6.590;2022-10-31T09:19:39;102005.34;;;21.52;55.05
67038;BME280;53940;53.204;6.590;2022-10-31T09:22:40;102003.53;;;21.53;55.11
67038;BME280;53940;53.204;6.590;2022-10-31T09:25:41;102001.59;;;21.55;55.17
67038;BME280;53940;53.204;6.590;2022-10-31T09:28:41;102001.59;;;21.55;55.15
67038;BME280;53940;53.204;6.590;2022-10-31T09:31:42;102007.81;;;21.56;55.17
67038;BME280;53940;53.204;6.590;2022-10-31T09:34:42;102007.81;;;21.56;55.34
67038;BME280;53940;53.204;6.590;2022-10-31T09:37:42;101999.88;;;21.54;54.93
67038;BME280;53940;53.204;6.590;2022-10-31T09:47:27;101990.88;;;21.55;55.32
67038;BME280;53940;53.204;6.590;2022-10-31T09:50:45;101999.78;;;21.56;55.07
67038;BME280;53940;53.204;6.590;2022-10-31T09:54:02;101987.19;;;21.56;55.22
67038;BME280;53940;53.204;6.590;2022-10-31T09:57:05;101991.59;;;21.57;55.03
67038;BME280;53940;53.204;6.590;2022-10-31T10:00:19;101984.53;;;21.56;55.33
67038;BME280;53940;53.204;6.590;2022-10-31T10:03:43;101976.72;;;21.53;54.93
67038;BME280;53940;53.204;6.590;2022-10-31T10:06:47;101977.34;;;21.57;55.18
67038;BME280;53940;53.204;6.590;2022-10-31T10:09:49;101985.28;;;21.58;55.27
67038;BME280;53940;53.204;6.590;2022-10-31T10:13:11;101984.53;;;21.56;55.28
67038;BME280;53940;53.204;6.590;2022-10-31T10:16:30;101982.72;;;21.57;55.21
67038;BME280;53940;53.204;6.590;2022-10-31T10:26:30;101979.03;;;21.58;55.32
67038;BME280;53940;53.204;6.590;2022-10-31T10:29:40;101970.03;;;21.59;55.34
67038;BME280;53940;53.204;6.590;2022-10-31T10:32:47;101975.28;;;21.60;55.27
67038;BME280;53940;53.204;6.590;2022-10-31T10:35:55;101975.28;;;21.60;55.11
67038;BME280;53940;53.204;6.590;2022-10-31T10:39:00;101968.94;;;21.61;55.38
67038;BME280;53940;53.204;6.590;2022-10-31T10:42:10;101966.34;;;21.60;55.38
67038;BME280;53940;53.204;6.590;2022-10-31T10:45:30;101963.56;;;21.61;55.27
67038;BME280;53940;53.204;6.590;2022-10-31T10:49:06;101962.59;;;21.62;55.24
67038;BME280;53940;53.204;6.590;2022-10-31T10:52:42;101965.16;;;21.64;55.40
67038;BME280;53940;53.204;6.590;2022-10-31T10:56:11;101957.97;;;21.64;55.32
67038;BME280;53940;53.204;6.590;2022-10-31T10:59:19;101966.75;;;21.66;55.50
67038;BME280;53940;53.204;6.590;2022-10-31T11:02:29;101953.34;;;21.66;55.43
67038;BME280;53940;53.204;6.590;2022-10-31T11:05:40;101948.69;;;21.68;55.21
67038;BME280;53940;53.204;6.590;2022-10-31T11:08:42;101944.94;;;21.71;55.14
67038;BME280;53940;53.204;6.590;2022-10-31T11:11:42;101939.59;;;21.71;55.17
67038;BME280;53940;53.204;6.590;2022-10-31T11:14:52;101939.38;;;21.74;55.53
67038;BME280;53940;53.204;6.590;2022-10-31T11:17:55;101933.84;;;21.76;55.30
67038;BME280;53940;53.204;6.590;2022-10-31T11:20:58;101931.06;;;21.77;55.48
67038;BME280;53940;53.204;6.590;2022-10-31T11:30:14;101928.97;;;21.81;55.09
67038;BME280;53940;53.204;6.590;2022-10-31T11:33:31;101915.56;;;21.81;55.13
67038;BME280;53940;53.204;6.590;2022-10-31T11:36:36;101920.94;;;21.81;55.19
67038;BME280;53940;53.204;6.590;2022-10-31T11:39:43;101917.28;;;21.82;55.50
67038;BME280;53940;53.204;6.590;2022-10-31T11:42:44;101912.66;;;21.84;55.51
67038;BME280;53940;53.204;6.590;2022-10-31T11:45:46;101904.63;;;21.84;55.64
67038;BME280;53940;53.204;6.590;2022-10-31T11:48:49;101894.59;;;21.86;55.60
67038;BME280;53940;53.204;6.590;2022-10-31T11:51:53;101891.91;;;21.86;55.89
67038;BME280;53940;53.204;6.590;2022-10-31T11:55:00;101884.59;;;21.88;55.71
67038;BME280;53940;53.204;6.590;2022-10-31T11:58:01;101873.84;;;21.88;55.68
67038;BME280;53940;53.204;6.590;2022-10-31T12:01:02;101867.53;;;21.89;55.89
67038;BME280;53940;53.204;6.590;2022-10-31T12:04:12;101863.97;;;21.89;55.99
67038;BME280;53940;53.204;6.590;2022-10-31T12:07:13;101859.34;;;21.91;55.61
67038;BME280;53940;53.204;6.590;2022-10-31T12:10:13;101841.41;;;21.91;55.75
67038;BME280;53940;53.204;6.590;2022-10-31T12:13:52;101846.78;;;21.91;55.65
67038;BME280;53940;53.204;6.590;2022-10-31T12:17:05;101841.41;;;21.91;55.61
67038;BME280;53940;53.204;6.590;2022-10-31T12:30:40;101827.00;;;21.92;55.72
67038;BME280;53940;53.204;6.590;2022-10-31T12:57:29;101746.28;;;21.96;55.68
67038;BME280;53940;53.204;6.590;2022-10-31T13:00:32;101740.91;;;21.96;55.58
67038;BME280;53940;53.204;6.590;2022-10-31T13:03:45;101742.72;;;21.95;55.47
67038;BME280;53940;53.204;6.590;2022-10-31T13:06:49;101741.84;;;21.94;55.25
67038;BME280;53940;53.204;6.590;2022-10-31T13:09:58;101743.59;;;21.96;55.30
67038;BME280;53940;53.204;6.590;2022-10-31T13:13:10;101731.00;;;21.96;55.22
67038;BME280;53940;53.204;6.590;2022-10-31T13:16:16;101709.66;;;21.94;55.45
67038;BME280;53940;53.204;6.590;2022-10-31T13:19:28;101702.47;;;21.95;55.14
67038;BME280;53940;53.204;6.590;2022-10-31T13:22:31;101705.25;;;21.93;55.13
67038;BME280;53940;53.204;6.590;2022-10-31T13:25:42;101733.81;;;21.94;55.26
67038;BME280;53940;53.204;6.590;2022-10-31T13:29:06;101725.03;;;21.92;55.41
67038;BME280;53940;53.204;6.590;2022-10-31T13:32:11;101719.66;;;21.92;55.14
67038;BME280;53940;53.204;6.590;2022-10-31T13:35:20;101707.25;;;21.91;55.06
67038;BME280;53940;53.204;6.590;2022-10-31T13:38:27;101712.59;;;21.91;55.22
67038;BME280;53940;53.204;6.590;2022-10-31T13:41:44;101697.50;;;21.90;55.26
67038;BME280;53940;53.204;6.590;2022-10-31T13:44:47;101695.63;;;21.91;55.37
67038;BME280;53940;53.204;6.590;2022-10-31T13:51:09;101696.63;;;21.90;54.96
67038;BME280;53940;53.204;6.590;2022-10-31T13:54:31;101693.09;;;21.89;55.29
67038;BME280;53940;53.204;6.590;2022-10-31T13:57:42;101686.00;;;21.88;55.21
67038;BME280;53940;53.204;6.590;2022-10-31T14:00:43;101659.19;;;21.88;55.32
67038;BME280;53940;53.204;6.590;2022-10-31T14:03:47;101654.66;;;21.89;55.00
67038;BME280;53940;53.204;6.590;2022-10-31T14:06:59;101647.72;;;21.86;55.33
67038;BME280;53940;53.204;6.590;2022-10-31T14:13:35;101654.06;;;21.85;55.13
67038;BME280;53940;53.204;6.590;2022-10-31T14:16:43;101646.03;;;21.85;54.96
67038;BME280;53940;53.204;6.590;2022-10-31T14:19:59;101639.78;;;21.85;54.85
67038;BME280;53940;53.204;6.590;2022-10-31T14:26:32;101639.09;;;21.83;55.25
67038;BME280;53940;53.204;6.590;2022-10-31T14:29:33;101638.09;;;21.84;55.21
67038;BME280;53940;53.204;6.590;2022-10-31T14:32:34;101622.13;;;21.82;54.94
67038;BME280;53940;53.204;6.590;2022-10-31T14:39:10;101625.78;;;21.81;55.08
67038;BME280;53940;53.204;6.590;2022-10-31T14:42:35;101615.06;;;21.81;54.94
67038;BME280;53940;53.204;6.590;2022-10-31T14:46:02;101595.56;;;21.79;55.07
67038;BME280;53940;53.204;6.590;2022-10-31T14:52:37;101613.34;;;21.80;54.88
67038;BME280;53940;53.204;6.590;2022-10-31T14:55:45;101609.97;;;21.78;54.96
67038;BME280;53940;53.204;6.590;2022-10-31T14:58:47;101597.53;;;21.77;55.10
67038;BME280;53940;53.204;6.590;2022-10-31T15:01:54;101599.22;;;21.78;54.80
67038;BME280;53940;53.204;6.590;2022-10-31T15:04:56;101588.63;;;21.76;54.77
67038;BME280;53940;53.204;6.590;2022-10-31T15:07:59;101579.72;;;21.76;54.96
67038;BME280;53940;53.204;6.590;2022-10-31T15:11:03;101585.06;;;21.76;54.84
67038;BME280;53940;53.204;6.590;2022-10-31T15:14:21;101578.00;;;21.75;54.83
67038;BME280;53940;53.204;6.590;2022-10-31T15:17:24;101568.25;;;21.74;54.84
67038;BME280;53940;53.204;6.590;2022-10-31T15:20:27;101561.91;;;21.75;54.82
67038;BME280;53940;53.204;6.590;2022-10-31T15:23:28;101560.22;;;21.74;54.82
67038;BME280;53940;53.204;6.590;2022-10-31T15:26:34;101563.88;;;21.73;55.11
67038;BME280;53940;53.204;6.590;2022-10-31T15:29:47;101555.13;;;21.71;55.03
67038;BME280;53940;53.204;6.590;2022-10-31T15:32:48;101540.72;;;21.72;54.88
67038;BME280;53940;53.204;6.590;2022-10-31T15:36:01;101548.78;;;21.72;54.85
67038;BME280;53940;53.204;6.590;2022-10-31T15:39:01;101542.41;;;21.73;55.15
67038;BME280;53940;53.204;6.590;2022-10-31T15:42:02;101539.75;;;21.73;55.20
67038;BME280;53940;53.204;6.590;2022-10-31T15:45:04;101529.00;;;21.73;55.07
67038;BME280;53940;53.204;6.590;2022-10-31T15:48:17;101520.97;;;21.73;54.80
67038;BME280;53940;53.204;6.590;2022-10-31T15:51:26;101515.59;;;21.73;55.09
67038;BME280;53940;53.204;6.590;2022-10-31T15:54:26;101520.97;;;21.73;55.11
67038;BME280;53940;53.204;6.590;2022-10-31T15:57:27;101529.72;;;21.75;55.11
67038;BME280;53940;53.204;6.590;2022-10-31T16:00:33;101518.16;;;21.74;55.12
67038;BME280;53940;53.204;6.590;2022-10-31T16:03:34;101524.34;;;21.75;54.82
67038;BME280;53940;53.204;6.590;2022-10-31T16:06:34;101518.00;;;21.76;55.05
67038;BME280;53940;53.204;6.590;2022-10-31T16:09:35;101514.50;;;21.75;55.06
67038;BME280;53940;53.204;6.590;2022-10-31T16:12:37;101513.63;;;21.75;55.12
67038;BME280;53940;53.204;6.590;2022-10-31T16:15:50;101501.19;;;21.74;54.91
67038;BME280;53940;53.204;6.590;2022-10-31T16:18:53;101495.84;;;21.74;54.90
67038;BME280;53940;53.204;6.590;2022-10-31T16:22:02;101495.84;;;21.74;54.99
67038;BME280;53940;53.204;6.590;2022-10-31T16:25:11;101497.81;;;21.72;54.95
67038;BME280;53940;53.204;6.590;2022-10-31T16:28:26;101487.06;;;21.72;54.98
67038;BME280;53940;53.204;6.590;2022-10-31T16:31:36;101488.06;;;21.71;55.23
67038;BME280;53940;53.204;6.590;2022-10-31T16:34:37;101485.38;;;21.71;55.18
67038;BME280;53940;53.204;6.590;2022-10-31T16:37:41;101474.75;;;21.69;55.18
67038;BME280;53940;53.204;6.590;2022-10-31T16:40:42;101479.25;;;21.68;55.01
67038;BME280;53940;53.204;6.590;2022-10-31T16:43:43;101474.88;;;21.67;54.86
67038;BME280;53940;53.204;6.590;2022-10-31T16:46:43;101467.69;;;21.68;54.96
67038;BME280;53940;53.204;6.590;2022-10-31T16:49:48;101465.13;;;21.66;54.98
67038;BME280;53940;53.204;6.590;2022-10-31T16:52:50;101474.00;;;21.67;54.90
67038;BME280;53940;53.204;6.590;2022-10-31T16:55:54;101477.66;;;21.66;54.90
67038;BME280;53940;53.204;6.590;2022-10-31T16:58:56;101475.84;;;21.66;55.09
67038;BME280;53940;53.204;6.590;2022-10-31T17:01:56;101472.31;;;21.66;54.81
67038;BME280;53940;53.204;6.590;2022-10-31T17:04:56;101467.81;;;21.66;54.95
67038;BME280;53940;53.204;6.590;2022-10-31T17:07:57;101464.41;;;21.64;54.93
67038;BME280;53940;53.204;6.590;2022-10-31T17:10:58;101463.56;;;21.64;55.27
67038;BME280;53940;53.204;6.590;2022-10-31T17:13:58;101452.81;;;21.64;55.26
67038;BME280;53940;53.204;6.590;2022-10-31T17:16:59;101445.63;;;21.64;54.86
67038;BME280;53940;53.204;6.590;2022-10-31T17:19:59;101444.78;;;21.64;55.02
67038;BME280;53940;53.204;6.590;2022-10-31T17:22:59;101432.22;;;21.64;55.12
67038;BME280;53940;53.204;6.590;2022-10-31T17:26:00;101426.84;;;21.64;54.99
67038;BME280;53940;53.204;6.590;2022-10-31T17:29:00;101418.81;;;21.64;55.36
67038;BME280;53940;53.204;6.590;2022-10-31T17:32:02;101421.50;;;21.64;54.94
67038;BME280;53940;53.204;6.590;2022-10-31T17:35:04;101417.94;;;21.64;55.01
67038;BME280;53940;53.204;6.590;2022-10-31T17:38:04;101410.75;;;21.64;55.39